Time;durP1;ratioP1;P1;durP2;ratioP2;P2;SDS_P1;SDS_P2;PMS_P1;PMS_P2;Temp;Humidity;BMP_temperature;BMP_pressure;BME280_temperature;BME280_humidity;BME280_pressure;Samples;Min_cycle;Max_cycle;Signal;HPM_P1;HPM_P2
2023/07/15 00:00:53;;;;;;;7.82;3.38;;;;;;;;;;5012154;28;20412;-84
2023/07/15 00:03:39;;;;;;;6.85;2.72;;;;;;;;;;5024248;28;20033;-73
2023/07/15 00:06:24;;;;;;;5.60;2.80;;;;;;;;;;5036831;28;20029;-73
2023/07/15 00:09:10;;;;;;;4.22;3.03;;;;;;;;;;5020918;28;20414;-72
2023/07/15 00:11:56;;;;;;;5.55;3.10;;;;;;;;;;5042967;28;20028;-71
2023/07/15 00:14:41;;;;;;;5.25;2.90;;;;;;;;;;5041270;28;20434;-71
2023/07/15 00:17:26;;;;;;;7.88;2.85;;;;;;;;;;5034167;28;20113;-71
2023/07/15 00:20:14;;;;;;;6.10;3.35;;;;;;;;;;5027578;28;20029;-85
2023/07/15 00:22:59;;;;;;;4.97;2.88;;;;;;;;;;5028612;28;20455;-82
2023/07/15 00:25:45;;;;;;;5.70;3.10;;;;;;;;;;5043855;28;20021;-84
2023/07/15 00:28:30;;;;;;;5.32;2.85;;;;;;;;;;5043628;28;20500;-86
2023/07/15 00:31:17;;;;;;;4.65;2.92;;;;;;;;;;5029371;28;20025;-86
2023/07/15 00:34:03;;;;;;;3.50;2.30;;;;;;;;;;5029560;28;20048;-85
2023/07/15 00:36:48;;;;;;;6.72;3.53;;;;;;;;;;5025581;28;20452;-71
2023/07/15 00:39:33;;;;;;;5.63;3.53;;;;;;;;;;5016524;28;20027;-71
2023/07/15 00:42:37;;;;;;;6.22;3.00;;;;;;;;;;5008708;28;20481;-71
2023/07/15 00:45:22;;;;;;;5.25;2.92;;;;;;;;;;5026389;28;20029;-71
2023/07/15 00:48:16;;;;;;;5.22;3.55;;;;;;;;;;5041410;28;20017;-71
2023/07/15 00:51:02;;;;;;;5.47;3.17;;;;;;;;;;5032150;28;20134;-72
2023/07/15 00:53:48;;;;;;;8.57;3.00;;;;;;;;;;5034797;28;20075;-75
2023/07/15 00:56:47;;;;;;;5.95;2.88;;;;;;;;;;5029465;28;20115;-75
2023/07/15 00:59:33;;;;;;;5.00;2.65;;;;;;;;;;5021053;28;20084;-85
2023/07/15 01:02:19;;;;;;;4.38;2.75;;;;;;;;;;5029166;28;20481;-86
2023/07/15 01:05:06;;;;;;;5.43;3.17;;;;;;;;;;5029953;28;20029;-87
2023/07/15 01:07:51;;;;;;;6.18;2.83;;;;;;;;;;5030947;28;20026;-88
2023/07/15 01:10:36;;;;;;;5.47;2.45;;;;;;;;;;5026909;28;20480;-87
2023/07/15 01:13:23;;;;;;;3.70;2.78;;;;;;;;;;5050713;28;20029;-74
2023/07/15 01:16:08;;;;;;;9.10;3.20;;;;;;;;;;5014583;28;20347;-76
2023/07/15 01:18:56;;;;;;;5.25;3.08;;;;;;;;;;5024356;28;20069;-76
2023/07/15 01:21:41;;;;;;;4.45;2.40;;;;;;;;;;4992859;28;20264;-77
2023/07/15 01:24:27;;;;;;;6.07;3.45;;;;;;;;;;4996000;28;20053;-76
2023/07/15 01:27:13;;;;;;;4.40;2.63;;;;;;;;;;5001038;28;20076;-77
2023/07/15 01:29:58;;;;;;;3.25;2.45;;;;;;;;;;5017108;28;20028;-76
2023/07/15 01:32:43;;;;;;;5.47;2.97;;;;;;;;;;5014258;28;20113;-75
2023/07/15 01:35:28;;;;;;;4.75;2.78;;;;;;;;;;5005588;28;20120;-83
2023/07/15 01:38:14;;;;;;;3.63;2.30;;;;;;;;;;5016249;28;20121;-86
2023/07/15 01:40:59;;;;;;;4.65;2.80;;;;;;;;;;5019201;28;20124;-83
2023/07/15 01:43:45;;;;;;;5.22;2.67;;;;;;;;;;5018655;28;20065;-85
2023/07/15 01:46:30;;;;;;;3.88;2.63;;;;;;;;;;5019428;28;20382;-84
2023/07/15 01:49:16;;;;;;;5.20;2.53;;;;;;;;;;5019728;28;20125;-76
2023/07/15 01:52:01;;;;;;;3.95;2.15;;;;;;;;;;5032041;28;20156;-74
2023/07/15 01:54:46;;;;;;;6.60;2.53;;;;;;;;;;5026425;28;20502;-74
2023/07/15 01:57:32;;;;;;;6.22;2.33;;;;;;;;;;5017606;28;20462;-78
2023/07/15 02:00:17;;;;;;;5.32;2.70;;;;;;;;;;5018714;28;20056;-75
2023/07/15 02:03:03;;;;;;;3.78;2.33;;;;;;;;;;5044558;28;20412;-76
2023/07/15 02:05:48;;;;;;;4.63;2.90;;;;;;;;;;5031075;28;20024;-76
2023/07/15 02:08:33;;;;;;;3.70;2.30;;;;;;;;;;5029279;28;20029;-76
2023/07/15 02:11:18;;;;;;;5.90;2.60;;;;;;;;;;5023326;28;20037;-74
2023/07/15 02:14:04;;;;;;;4.22;2.00;;;;;;;;;;5017722;28;20460;-73
2023/07/15 02:16:49;;;;;;;4.43;2.67;;;;;;;;;;5020653;28;20088;-74
2023/07/15 02:19:34;;;;;;;5.22;2.20;;;;;;;;;;5032167;28;20026;-74
2023/07/15 02:22:20;;;;;;;5.20;2.67;;;;;;;;;;5020306;28;20036;-73
2023/07/15 02:25:05;;;;;;;4.85;3.42;;;;;;;;;;5023851;28;20021;-73
2023/07/15 02:27:51;;;;;;;3.97;2.35;;;;;;;;;;5032772;28;20025;-76
2023/07/15 02:30:36;;;;;;;6.53;2.45;;;;;;;;;;5016296;28;20396;-88
2023/07/15 02:33:23;;;;;;;7.45;2.88;;;;;;;;;;5032195;28;20059;-87
2023/07/15 02:36:08;;;;;;;3.70;2.28;;;;;;;;;;5023179;28;20112;-86
2023/07/15 02:38:53;;;;;;;3.67;2.40;;;;;;;;;;5025460;28;20104;-87
2023/07/15 02:41:39;;;;;;;3.55;2.38;;;;;;;;;;5022210;28;20072;-86
2023/07/15 02:44:24;;;;;;;3.58;2.40;;;;;;;;;;5033451;28;20029;-73
2023/07/15 02:47:09;;;;;;;4.40;2.75;;;;;;;;;;5028294;28;20086;-71
2023/07/15 02:49:54;;;;;;;3.75;2.47;;;;;;;;;;5034218;28;20092;-72
2023/07/15 02:52:42;;;;;;;5.45;2.30;;;;;;;;;;5057883;28;20025;-73
2023/07/15 02:55:27;;;;;;;4.20;2.45;;;;;;;;;;5040377;28;20113;-72
2023/07/15 02:58:13;;;;;;;7.28;2.70;;;;;;;;;;5047078;28;20174;-72
2023/07/15 03:00:58;;;;;;;3.63;2.47;;;;;;;;;;5029702;28;20025;-73
2023/07/15 03:03:44;;;;;;;3.67;2.35;;;;;;;;;;5049329;28;20021;-75
2023/07/15 03:06:33;;;;;;;5.32;2.20;;;;;;;;;;5019364;28;20025;-76
2023/07/15 03:09:17;;;;;;;5.47;2.53;;;;;;;;;;5005659;28;20076;-77
2023/07/15 03:12:03;;;;;;;4.70;2.85;;;;;;;;;;5029984;28;20075;-76
2023/07/15 03:14:49;;;;;;;3.05;2.47;;;;;;;;;;5024763;28;20036;-77
2023/07/15 03:17:37;;;;;;;6.10;2.40;;;;;;;;;;5036067;28;20090;-76
2023/07/15 03:20:25;;;;;;;5.82;3.10;;;;;;;;;;5018793;28;20025;-77
2023/07/15 03:23:10;;;;;;;8.27;2.08;;;;;;;;;;5030395;28;20068;-76
2023/07/15 03:25:57;;;;;;;5.60;2.80;;;;;;;;;;5041886;28;20033;-77
2023/07/15 03:28:43;;;;;;;3.95;2.30;;;;;;;;;;5036573;28;20487;-77
2023/07/15 03:31:29;;;;;;;3.35;2.67;;;;;;;;;;5009015;28;20026;-78
2023/07/15 03:34:14;;;;;;;5.03;2.50;;;;;;;;;;5044097;28;20009;-78
2023/07/15 03:37:00;;;;;;;4.15;2.90;;;;;;;;;;5027909;28;20037;-77
2023/07/15 03:39:46;;;;;;;3.10;2.28;;;;;;;;;;5007747;28;20045;-75
2023/07/15 03:42:31;;;;;;;4.75;2.83;;;;;;;;;;5020375;28;20025;-74
2023/07/15 03:45:16;;;;;;;3.20;2.25;;;;;;;;;;5020880;28;20102;-72
2023/07/15 03:48:02;;;;;;;6.07;2.90;;;;;;;;;;5048767;28;20037;-73
2023/07/15 03:50:47;;;;;;;5.78;2.75;;;;;;;;;;5032943;28;20484;-73
2023/07/15 03:53:32;;;;;;;4.65;2.13;;;;;;;;;;5032281;28;20062;-73
2023/07/15 03:56:17;;;;;;;3.00;2.00;;;;;;;;;;5042792;28;20062;-72
2023/07/15 03:59:04;;;;;;;4.35;2.28;;;;;;;;;;5039971;28;20056;-75
2023/07/15 04:01:49;;;;;;;5.85;2.50;;;;;;;;;;5035957;28;20024;-76
2023/07/15 04:04:34;;;;;;;4.63;2.58;;;;;;;;;;5046424;28;20467;-75
2023/07/15 04:07:19;;;;;;;5.63;2.80;;;;;;;;;;5019443;28;20080;-75
2023/07/15 04:10:05;;;;;;;3.97;2.95;;;;;;;;;;5032701;28;20128;-76
2023/07/15 04:12:51;;;;;;;5.35;2.67;;;;;;;;;;5042793;28;20088;-77
2023/07/15 04:15:36;;;;;;;2.80;2.20;;;;;;;;;;5042306;28;20043;-78
2023/07/15 04:18:21;;;;;;;6.13;2.88;;;;;;;;;;5034707;28;20172;-78
2023/07/15 04:21:06;;;;;;;3.60;2.38;;;;;;;;;;5016338;28;20025;-75
2023/07/15 04:23:52;;;;;;;5.28;2.38;;;;;;;;;;5023421;28;20708;-74
2023/07/15 04:26:37;;;;;;;5.80;2.70;;;;;;;;;;5030021;28;20021;-74
2023/07/15 04:29:22;;;;;;;4.90;2.63;;;;;;;;;;5029771;28;20442;-73
2023/07/15 04:32:08;;;;;;;3.28;2.45;;;;;;;;;;5014263;28;20025;-73
2023/07/15 04:34:53;;;;;;;5.68;2.85;;;;;;;;;;5030631;28;20045;-75
2023/07/15 04:37:38;;;;;;;5.22;2.38;;;;;;;;;;5037291;28;20013;-75
2023/07/15 04:40:24;;;;;;;5.18;2.70;;;;;;;;;;5024204;28;20357;-74
2023/07/15 04:43:09;;;;;;;4.10;2.83;;;;;;;;;;5002962;28;20459;-76
2023/07/15 04:45:54;;;;;;;3.33;2.42;;;;;;;;;;5034006;28;20033;-77
2023/07/15 04:48:40;;;;;;;6.53;2.50;;;;;;;;;;5026009;28;20407;-73
2023/07/15 04:51:25;;;;;;;4.95;2.72;;;;;;;;;;5025823;28;20020;-74
2023/07/15 04:54:10;;;;;;;5.88;2.85;;;;;;;;;;5034495;28;20534;-76
2023/07/15 04:56:55;;;;;;;3.47;2.55;;;;;;;;;;5001450;28;20128;-73
2023/07/15 04:59:41;;;;;;;5.20;2.67;;;;;;;;;;5022451;28;20434;-72
2023/07/15 05:02:26;;;;;;;3.58;2.40;;;;;;;;;;5018038;28;20025;-72
2023/07/15 05:05:12;;;;;;;4.80;2.33;;;;;;;;;;5021107;28;20093;-71
2023/07/15 05:08:01;;;;;;;3.53;2.65;;;;;;;;;;4999988;28;20034;-72
2023/07/15 05:10:48;;;;;;;4.63;2.47;;;;;;;;;;5010308;28;20045;-72
2023/07/15 05:13:33;;;;;;;4.38;2.38;;;;;;;;;;5004102;28;20036;-77
2023/07/15 05:16:19;;;;;;;3.83;2.55;;;;;;;;;;5024784;28;20132;-75
2023/07/15 05:19:04;;;;;;;5.53;2.65;;;;;;;;;;5025374;28;20025;-75
2023/07/15 05:21:50;;;;;;;4.28;2.50;;;;;;;;;;5016247;28;20397;-78
2023/07/15 05:24:35;;;;;;;5.57;2.83;;;;;;;;;;5015490;28;20037;-74
2023/07/15 05:27:20;;;;;;;3.92;2.45;;;;;;;;;;5029012;28;20025;-75
2023/07/15 05:30:06;;;;;;;3.88;2.55;;;;;;;;;;5038705;28;20159;-73
2023/07/15 05:32:51;;;;;;;3.45;2.60;;;;;;;;;;5021368;28;20044;-78
2023/07/15 05:35:37;;;;;;;4.88;2.80;;;;;;;;;;5027728;28;20026;-76
2023/07/15 05:38:22;;;;;;;3.00;1.95;;;;;;;;;;5037728;28;20047;-76
2023/07/15 05:41:08;;;;;;;5.25;2.65;;;;;;;;;;5028809;28;20021;-76
2023/07/15 05:43:53;;;;;;;5.40;2.22;;;;;;;;;;5022985;28;20025;-76
2023/07/15 05:46:38;;;;;;;3.25;2.20;;;;;;;;;;5042891;28;20090;-76
2023/07/15 05:49:23;;;;;;;3.53;2.20;;;;;;;;;;5047282;28;20107;-72
2023/07/15 05:52:09;;;;;;;3.70;2.25;;;;;;;;;;5041771;28;20030;-72
2023/07/15 05:54:54;;;;;;;9.82;2.50;;;;;;;;;;5048005;28;20037;-72
2023/07/15 05:57:39;;;;;;;6.53;2.22;;;;;;;;;;5042787;28;20044;-71
2023/07/15 06:00:24;;;;;;;4.47;2.13;;;;;;;;;;5035958;28;20495;-72
2023/07/15 06:03:10;;;;;;;5.88;2.30;;;;;;;;;;5036373;28;20481;-71
2023/07/15 06:06:01;;;;;;;3.83;2.30;;;;;;;;;;5038500;28;20424;-72
2023/07/15 06:08:47;;;;;;;4.65;2.30;;;;;;;;;;5031897;28;20579;-74
2023/07/15 06:11:32;;;;;;;2.40;1.80;;;;;;;;;;5023505;28;20017;-75
2023/07/15 06:14:17;;;;;;;2.70;2.20;;;;;;;;;;5024043;28;20579;-76
2023/07/15 06:17:02;;;;;;;5.05;2.35;;;;;;;;;;5014890;28;20125;-75
2023/07/15 06:19:48;;;;;;;5.80;2.85;;;;;;;;;;5031898;28;20018;-75
2023/07/15 06:22:33;;;;;;;4.13;2.22;;;;;;;;;;5018717;28;20025;-77
2023/07/15 06:25:18;;;;;;;2.42;2.03;;;;;;;;;;5044923;28;20086;-73
2023/07/15 06:28:04;;;;;;;2.60;2.00;;;;;;;;;;5034248;28;20053;-73
2023/07/15 06:30:50;;;;;;;2.38;1.88;;;;;;;;;;5017795;28;20040;-73
2023/07/15 06:33:35;;;;;;;4.10;2.13;;;;;;;;;;5018696;28;20018;-72
2023/07/15 06:36:21;;;;;;;4.38;2.22;;;;;;;;;;5014746;28;20024;-72
2023/07/15 06:39:06;;;;;;;4.40;1.73;;;;;;;;;;5024608;28;20628;-72
2023/07/15 06:41:52;;;;;;;2.40;2.00;;;;;;;;;;5029077;28;20271;-71
2023/07/15 06:44:37;;;;;;;4.72;1.80;;;;;;;;;;5041399;28;20028;-71
2023/07/15 06:47:22;;;;;;;3.88;2.38;;;;;;;;;;5007809;28;20014;-75
2023/07/15 06:50:08;;;;;;;5.38;2.10;;;;;;;;;;5031525;28;20057;-75
2023/07/15 06:52:53;;;;;;;3.38;1.80;;;;;;;;;;5032222;28;20028;-74
2023/07/15 06:55:38;;;;;;;4.90;2.20;;;;;;;;;;5027589;28;20393;-75
2023/07/15 06:58:24;;;;;;;3.55;2.38;;;;;;;;;;5022355;28;20091;-74
2023/07/15 07:01:09;;;;;;;2.70;1.73;;;;;;;;;;5014322;28;20746;-74
2023/07/15 07:03:54;;;;;;;3.30;2.05;;;;;;;;;;5041007;28;20040;-74
2023/07/15 07:06:39;;;;;;;3.38;2.00;;;;;;;;;;5037585;28;20025;-75
2023/07/15 07:09:25;;;;;;;3.08;1.85;;;;;;;;;;5028560;28;20021;-75
2023/07/15 07:12:10;;;;;;;3.63;2.13;;;;;;;;;;5012098;28;20037;-76
2023/07/15 07:14:55;;;;;;;2.85;1.98;;;;;;;;;;5029312;28;20104;-76
2023/07/15 07:17:40;;;;;;;2.67;2.13;;;;;;;;;;5017763;28;20633;-74
2023/07/15 07:20:25;;;;;;;3.58;1.75;;;;;;;;;;5032652;28;20025;-77
2023/07/15 07:23:11;;;;;;;3.92;2.03;;;;;;;;;;5031596;28;20044;-73
2023/07/15 07:25:56;;;;;;;4.25;1.70;;;;;;;;;;5033493;28;20024;-74
2023/07/15 07:28:42;;;;;;;3.28;1.80;;;;;;;;;;5044410;28;20028;-75
2023/07/15 07:31:28;;;;;;;4.32;2.03;;;;;;;;;;5013679;28;20018;-78
2023/07/15 07:34:13;;;;;;;3.70;2.08;;;;;;;;;;5033813;28;20490;-74
2023/07/15 07:36:58;;;;;;;2.30;1.85;;;;;;;;;;5022191;28;20497;-76
2023/07/15 07:39:43;;;;;;;3.45;2.20;;;;;;;;;;5041276;28;20084;-78
2023/07/15 07:42:29;;;;;;;6.47;2.97;;;;;;;;;;5034009;28;20025;-71
2023/07/15 07:45:14;;;;;;;2.20;1.98;;;;;;;;;;5028566;28;20030;-72
2023/07/15 07:48:00;;;;;;;4.32;2.20;;;;;;;;;;5037030;28;20379;-69
2023/07/15 07:50:45;;;;;;;3.25;2.35;;;;;;;;;;5025183;28;20057;-67
2023/07/15 07:53:37;;;;;;;4.43;1.60;;;;;;;;;;5026721;28;20036;-68
2023/07/15 07:56:23;;;;;;;2.47;1.70;;;;;;;;;;5021767;28;20116;-68
2023/07/15 07:59:08;;;;;;;2.95;2.10;;;;;;;;;;5019825;28;20053;-75
2023/07/15 08:01:53;;;;;;;4.25;1.90;;;;;;;;;;5027770;28;20025;-75
2023/07/15 08:04:39;;;;;;;2.60;2.10;;;;;;;;;;5014536;28;20026;-74
2023/07/15 08:07:24;;;;;;;3.13;2.08;;;;;;;;;;5021219;28;20028;-73
2023/07/15 08:10:09;;;;;;;3.70;2.10;;;;;;;;;;5025922;28;20107;-73
2023/07/15 08:12:54;;;;;;;2.80;2.28;;;;;;;;;;5028554;28;20026;-73
2023/07/15 08:15:39;;;;;;;3.50;2.50;;;;;;;;;;5015374;28;20044;-77
2023/07/15 08:18:25;;;;;;;4.32;2.13;;;;;;;;;;5022088;28;20053;-76
2023/07/15 08:21:10;;;;;;;2.72;2.30;;;;;;;;;;5009763;28;20033;-78
2023/07/15 08:23:56;;;;;;;3.15;2.20;;;;;;;;;;5024159;28;20033;-77
2023/07/15 08:26:41;;;;;;;3.88;2.20;;;;;;;;;;5023003;28;20068;-79
2023/07/15 08:29:26;;;;;;;5.45;2.13;;;;;;;;;;5029883;28;20030;-75
2023/07/15 08:32:12;;;;;;;4.93;2.00;;;;;;;;;;5023111;28;20033;-78
2023/07/15 08:35:01;;;;;;;3.55;2.10;;;;;;;;;;5024939;28;20288;-77
2023/07/15 08:37:46;;;;;;;4.03;2.33;;;;;;;;;;5026424;28;20624;-73
2023/07/15 08:40:33;;;;;;;2.45;1.80;;;;;;;;;;5044773;28;20041;-75
2023/07/15 08:43:19;;;;;;;3.75;2.55;;;;;;;;;;5041744;28;20531;-73
2023/07/15 08:46:11;;;;;;;4.53;1.98;;;;;;;;;;5047217;28;20021;-74
2023/07/15 08:48:57;;;;;;;5.72;2.08;;;;;;;;;;5032888;28;20033;-73
2023/07/15 08:51:44;;;;;;;3.05;2.00;;;;;;;;;;5004157;28;20025;-77
2023/07/15 08:54:30;;;;;;;4.05;2.10;;;;;;;;;;5037495;28;20017;-77
2023/07/15 08:57:20;;;;;;;2.22;2.00;;;;;;;;;;5016315;28;20033;-83
2023/07/15 09:00:09;;;;;;;3.30;1.95;;;;;;;;;;5034223;28;20067;-83
2023/07/15 09:02:55;;;;;;;3.42;2.15;;;;;;;;;;5015249;28;20382;-83
2023/07/15 09:05:40;;;;;;;3.63;2.20;;;;;;;;;;5036774;28;20477;-81
2023/07/15 09:08:26;;;;;;;5.18;2.78;;;;;;;;;;5017015;28;20028;-84
2023/07/15 09:11:11;;;;;;;2.85;2.10;;;;;;;;;;5022170;28;20080;-73
2023/07/15 09:13:56;;;;;;;3.33;2.17;;;;;;;;;;5035378;28;20056;-78
2023/07/15 09:16:42;;;;;;;3.05;2.38;;;;;;;;;;5045790;28;20040;-78
2023/07/15 09:19:31;;;;;;;4.45;2.35;;;;;;;;;;5025659;28;20108;-79
2023/07/15 09:22:17;;;;;;;2.53;1.75;;;;;;;;;;5045255;28;20021;-79
2023/07/15 09:25:03;;;;;;;3.10;2.00;;;;;;;;;;5040713;28;20021;-79
2023/07/15 09:27:49;;;;;;;3.67;2.00;;;;;;;;;;5031700;28;20033;-78
2023/07/15 09:30:38;;;;;;;4.97;2.60;;;;;;;;;;5030297;28;20064;-73
2023/07/15 09:33:28;;;;;;;3.75;2.15;;;;;;;;;;5029556;28;20384;-73
2023/07/15 09:36:13;;;;;;;3.22;1.83;;;;;;;;;;5043284;28;20496;-74
2023/07/15 09:39:23;;;;;;;3.67;2.20;;;;;;;;;;5033776;28;20038;-74
2023/07/15 09:42:08;;;;;;;3.10;2.28;;;;;;;;;;5025820;28;20149;-74
2023/07/15 09:44:54;;;;;;;3.28;1.90;;;;;;;;;;5008196;28;20477;-73
2023/07/15 09:47:41;;;;;;;2.55;1.85;;;;;;;;;;5027421;28;20102;-78
2023/07/15 09:50:27;;;;;;;6.32;2.20;;;;;;;;;;5038098;28;20032;-83
2023/07/15 09:53:12;;;;;;;2.50;1.88;;;;;;;;;;5019883;28;20014;-82
2023/07/15 09:55:59;;;;;;;3.17;2.00;;;;;;;;;;5032918;28;20547;-83
2023/07/15 09:58:45;;;;;;;4.55;2.20;;;;;;;;;;5028301;28;20053;-83
2023/07/15 10:01:54;;;;;;;2.72;2.17;;;;;;;;;;5016075;28;20419;-81
2023/07/15 10:04:41;;;;;;;;;;;;;;;;;;5030385;28;20057;-83
2023/07/15 10:07:27;;;;;;;3.97;2.53;;;;;;;;;;5026509;28;19953;-74
2023/07/15 10:10:13;;;;;;;3.40;2.17;;;;;;;;;;5032916;28;20075;-72
2023/07/15 10:12:58;;;;;;;3.92;2.42;;;;;;;;;;5042448;28;20137;-74
2023/07/15 10:15:44;;;;;;;3.42;2.15;;;;;;;;;;5046935;28;20160;-73
2023/07/15 10:18:33;;;;;;;3.78;2.30;;;;;;;;;;5025008;28;20045;-73
2023/07/15 10:21:18;;;;;;;;;;;;;;;;;;5045985;28;20024;-73
2023/07/15 10:24:08;;;;;;;2.78;1.90;;;;;;;;;;5033267;28;19913;-76
2023/07/15 10:26:53;;;;;;;3.78;2.30;;;;;;;;;;5030621;28;20025;-79
2023/07/15 10:29:40;;;;;;;6.40;2.10;;;;;;;;;;5032300;28;20036;-73
2023/07/15 10:32:25;;;;;;;2.65;1.85;;;;;;;;;;5033658;28;20082;-74
2023/07/15 10:35:10;;;;;;;2.13;1.88;;;;;;;;;;5040577;28;20206;-72
2023/07/15 10:38:00;;;;;;;3.88;2.13;;;;;;;;;;5031524;28;20056;-72
2023/07/15 10:40:54;;;;;;;2.85;2.30;;;;;;;;;;5019743;28;20028;-73
2023/07/15 10:43:40;;;;;;;4.13;2.38;;;;;;;;;;5049713;28;20036;-73
2023/07/15 10:46:29;;;;;;;3.45;1.85;;;;;;;;;;5047871;28;20013;-84
2023/07/15 10:49:15;;;;;;;2.92;1.85;;;;;;;;;;5033882;28;20128;-86
2023/07/15 10:52:02;;;;;;;4.43;2.00;;;;;;;;;;5038856;28;20139;-84
2023/07/15 10:54:47;;;;;;;3.83;2.22;;;;;;;;;;5050577;28;20025;-83
2023/07/15 10:57:36;;;;;;;2.53;1.80;;;;;;;;;;5030614;28;20048;-85
2023/07/15 11:00:21;;;;;;;3.95;2.30;;;;;;;;;;5046167;28;20042;-84
2023/07/15 11:03:09;;;;;;;2.72;1.90;;;;;;;;;;5032743;28;20029;-74
2023/07/15 11:05:56;;;;;;;3.45;2.38;;;;;;;;;;5026497;28;20116;-77
2023/07/15 11:08:42;;;;;;;3.30;2.10;;;;;;;;;;5043764;28;20110;-77
2023/07/15 11:11:29;;;;;;;5.15;2.47;;;;;;;;;;5018493;28;20067;-76
2023/07/15 11:14:25;;;;;;;4.43;2.20;;;;;;;;;;5041406;28;20025;-76
2023/07/15 11:17:13;;;;;;;3.35;2.00;;;;;;;;;;5036681;28;20115;-79
2023/07/15 11:19:59;;;;;;;;;;;;;;;;;;5016414;28;20059;-86
2023/07/15 11:22:44;;;;;;;4.30;2.03;;;;;;;;;;5026750;28;19906;-77
2023/07/15 11:25:30;;;;;;;2.65;1.85;;;;;;;;;;5014759;28;20435;-76
2023/07/15 11:28:16;;;;;;;2.55;2.00;;;;;;;;;;5021870;28;20022;-76
2023/07/15 11:31:01;;;;;;;4.10;2.15;;;;;;;;;;5026512;28;20071;-73
2023/07/15 11:33:51;;;;;;;4.22;1.80;;;;;;;;;;5003024;28;20049;-76
2023/07/15 11:36:38;;;;;;;3.58;2.20;;;;;;;;;;5005791;28;20061;-78
2023/07/15 11:39:23;;;;;;;3.05;2.00;;;;;;;;;;5013854;28;20158;-74
2023/07/15 11:42:09;;;;;;;4.47;2.05;;;;;;;;;;5006974;28;20017;-65
2023/07/15 11:44:56;;;;;;;3.53;2.30;;;;;;;;;;5023341;28;20048;-84
2023/07/15 11:47:41;;;;;;;15.65;13.90;;;;;;;;;;5026782;28;20021;-76
2023/07/15 11:50:27;;;;;;;4.20;3.05;;;;;;;;;;5018399;28;20026;-74
2023/07/15 11:53:42;;;;;;;4.55;2.70;;;;;;;;;;5006128;28;20143;-62
2023/07/15 11:56:34;;;;;;;5.30;2.78;;;;;;;;;;5021436;28;20371;-68
2023/07/15 11:59:26;;;;;;;27.88;18.30;;;;;;;;;;5018432;28;20497;-68
2023/07/15 12:02:12;;;;;;;328.95;294.83;;;;;;;;;;5020142;28;20030;-73
2023/07/15 12:04:57;;;;;;;1018.03;736.85;;;;;;;;;;5012560;28;20025;-69
2023/07/15 12:07:46;;;;;;;726.85;589.13;;;;;;;;;;5018968;28;20026;-74
2023/07/15 12:10:31;;;;;;;113.63;99.75;;;;;;;;;;5012916;28;20507;-75
2023/07/15 12:13:16;;;;;;;352.63;282.25;;;;;;;;;;5028070;28;20079;-74
2023/07/15 12:16:02;;;;;;;69.88;62.75;;;;;;;;;;5012339;28;20032;-75
2023/07/15 12:18:47;;;;;;;106.72;97.57;;;;;;;;;;5029821;28;20052;-77
2023/07/15 12:21:32;;;;;;;57.13;52.42;;;;;;;;;;5004834;28;20068;-84
2023/07/15 12:24:17;;;;;;;36.58;33.67;;;;;;;;;;5011791;28;20037;-77
2023/07/15 12:27:03;;;;;;;78.03;71.90;;;;;;;;;;5020458;28;20029;-76
2023/07/15 12:29:48;;;;;;;33.65;30.52;;;;;;;;;;5008550;28;20033;-77
2023/07/15 12:32:33;;;;;;;26.65;24.15;;;;;;;;;;5033631;28;20488;-82
2023/07/15 12:35:18;;;;;;;31.95;28.50;;;;;;;;;;5013587;28;20021;-75
2023/07/15 12:38:04;;;;;;;7.28;3.50;;;;;;;;;;5009260;28;20179;-82
2023/07/15 12:40:49;;;;;;;4.95;2.90;;;;;;;;;;5015580;28;20577;-83
2023/07/15 12:43:34;;;;;;;15.75;11.40;;;;;;;;;;5011597;28;20176;-86
2023/07/15 12:46:19;;;;;;;13.85;7.35;;;;;;;;;;5010412;28;20029;-79
2023/07/15 12:49:05;;;;;;;6.47;4.55;;;;;;;;;;5017624;28;20381;-73
2023/07/15 12:51:50;;;;;;;5.93;3.90;;;;;;;;;;5005795;28;20032;-76
2023/07/15 12:54:35;;;;;;;4.80;3.30;;;;;;;;;;5017113;28;20021;-79
2023/07/15 12:57:21;;;;;;;4.55;2.40;;;;;;;;;;5006332;28;20734;-79
2023/07/15 13:00:06;;;;;;;3.15;2.60;;;;;;;;;;5019622;28;20084;-84
2023/07/15 13:02:52;;;;;;;2.88;2.10;;;;;;;;;;5019601;28;20163;-80
2023/07/15 13:05:37;;;;;;;6.47;2.28;;;;;;;;;;5021958;28;20041;-80
2023/07/15 13:08:22;;;;;;;4.35;3.17;;;;;;;;;;5019993;28;20037;-80
2023/07/15 13:11:07;;;;;;;4.95;2.33;;;;;;;;;;5021180;28;20136;-79
2023/07/15 13:13:52;;;;;;;4.70;2.67;;;;;;;;;;5028045;28;20029;-77
2023/07/15 13:16:38;;;;;;;7.95;2.92;;;;;;;;;;5045275;28;20553;-77
2023/07/15 13:19:23;;;;;;;5.95;3.78;;;;;;;;;;5025620;28;20113;-77
2023/07/15 13:22:08;;;;;;;9.48;4.00;;;;;;;;;;5047899;28;20108;-79
2023/07/15 13:24:53;;;;;;;6.30;2.85;;;;;;;;;;5014239;28;20048;-78
2023/07/15 13:27:39;;;;;;;5.85;2.65;;;;;;;;;;5045538;28;20040;-77
2023/07/15 13:30:24;;;;;;;4.47;3.20;;;;;;;;;;5027034;28;20026;-69
2023/07/15 13:33:09;;;;;;;4.50;2.67;;;;;;;;;;5034575;28;20024;-73
2023/07/15 13:35:55;;;;;;;2.70;2.25;;;;;;;;;;5022002;28;20639;-74
2023/07/15 13:38:42;;;;;;;6.10;3.45;;;;;;;;;;5019679;28;20168;-74
2023/07/15 13:41:27;;;;;;;5.13;2.40;;;;;;;;;;5021364;28;20101;-74
2023/07/15 13:44:13;;;;;;;30.85;22.90;;;;;;;;;;5027098;28;20022;-71
2023/07/15 13:46:58;;;;;;;5.38;3.78;;;;;;;;;;5028466;28;20075;-77
2023/07/15 13:49:43;;;;;;;3.25;2.53;;;;;;;;;;5010507;28;20028;-75
2023/07/15 13:52:29;;;;;;;6.78;2.85;;;;;;;;;;5014138;28;20104;-73
2023/07/15 13:55:15;;;;;;;4.40;3.20;;;;;;;;;;5017214;28;20416;-76
2023/07/15 13:58:00;;;;;;;6.28;3.40;;;;;;;;;;5018686;28;20127;-76
2023/07/15 14:00:45;;;;;;;6.15;3.00;;;;;;;;;;5027892;28;20122;-74
2023/07/15 14:03:31;;;;;;;4.82;2.65;;;;;;;;;;5013460;28;20212;-73
2023/07/15 14:06:16;;;;;;;6.32;2.40;;;;;;;;;;5015165;28;20029;-76
2023/07/15 14:09:03;;;;;;;8.60;3.50;;;;;;;;;;5019743;28;20041;-76
2023/07/15 14:11:48;;;;;;;3.83;2.63;;;;;;;;;;5026989;28;20053;-75
2023/07/15 14:14:33;;;;;;;4.72;2.63;;;;;;;;;;5021122;28;20025;-71
2023/07/15 14:17:18;;;;;;;4.35;3.00;;;;;;;;;;5022130;28;20032;-69
2023/07/15 14:20:04;;;;;;;37.75;26.42;;;;;;;;;;5024922;28;20167;-69
2023/07/15 14:22:49;;;;;;;10.02;3.40;;;;;;;;;;5023540;28;20119;-69
2023/07/15 14:25:35;;;;;;;4.35;2.70;;;;;;;;;;5031353;28;20032;-76
2023/07/15 14:28:20;;;;;;;5.68;2.50;;;;;;;;;;5022712;28;20495;-76
2023/07/15 14:31:05;;;;;;;5.57;2.72;;;;;;;;;;5023563;28;20032;-75
2023/07/15 14:33:53;;;;;;;4.82;2.40;;;;;;;;;;5015048;28;20030;-75
2023/07/15 14:36:39;;;;;;;6.80;2.80;;;;;;;;;;5029327;28;20085;-76
2023/07/15 14:39:24;;;;;;;5.85;2.67;;;;;;;;;;5022189;28;20037;-75
2023/07/15 14:42:09;;;;;;;9.65;5.97;;;;;;;;;;5023540;28;20030;-71
2023/07/15 14:44:55;;;;;;;18.42;11.15;;;;;;;;;;5013123;28;20021;-74
2023/07/15 14:47:40;;;;;;;14.63;7.32;;;;;;;;;;5023770;28;20517;-76
2023/07/15 14:50:25;;;;;;;3.47;2.50;;;;;;;;;;5005551;28;20030;-76
2023/07/15 14:53:10;;;;;;;7.10;3.53;;;;;;;;;;5016536;28;20074;-79
2023/07/15 14:55:56;;;;;;;7.35;4.10;;;;;;;;;;5015018;28;20036;-76
2023/07/15 14:58:41;;;;;;;5.95;3.33;;;;;;;;;;5028989;28;20511;-75
2023/07/15 15:01:26;;;;;;;5.22;2.72;;;;;;;;;;5007821;28;20030;-73
2023/07/15 15:04:11;;;;;;;4.82;2.70;;;;;;;;;;5020690;28;20094;-75
2023/07/15 15:06:57;;;;;;;5.82;3.38;;;;;;;;;;5024644;28;20037;-75
2023/07/15 15:09:42;;;;;;;5.25;3.10;;;;;;;;;;5030737;28;20038;-73
2023/07/15 15:12:27;;;;;;;6.22;3.08;;;;;;;;;;5025871;28;20128;-76
2023/07/15 15:15:13;;;;;;;8.85;4.63;;;;;;;;;;5008501;28;20110;-68
2023/07/15 15:17:58;;;;;;;7.03;3.80;;;;;;;;;;5038781;28;20057;-64
2023/07/15 15:20:43;;;;;;;11.40;8.45;;;;;;;;;;5038630;28;20018;-65
2023/07/15 15:23:28;;;;;;;9.25;3.78;;;;;;;;;;5027512;28;20026;-69
2023/07/15 15:26:15;;;;;;;7.80;3.55;;;;;;;;;;5020074;28;20465;-69
2023/07/15 15:29:00;;;;;;;19.17;10.57;;;;;;;;;;5017466;28;20033;-69
2023/07/15 15:31:46;;;;;;;33.65;28.77;;;;;;;;;;5022069;28;20048;-69
2023/07/15 15:34:31;;;;;;;11.65;5.32;;;;;;;;;;5034674;28;20394;-71
2023/07/15 15:37:16;;;;;;;6.32;3.90;;;;;;;;;;5006610;28;20041;-68
2023/07/15 15:40:02;;;;;;;12.70;8.65;;;;;;;;;;5015111;28;20398;-72
2023/07/15 15:42:47;;;;;;;7.07;4.68;;;;;;;;;;5019756;28;20028;-77
2023/07/15 15:45:32;;;;;;;7.13;3.50;;;;;;;;;;5018282;28;20523;-76
2023/07/15 15:48:18;;;;;;;5.65;3.30;;;;;;;;;;5026019;28;20021;-81
2023/07/15 15:51:03;;;;;;;7.22;3.58;;;;;;;;;;5027172;28;20025;-81
2023/07/15 15:54:00;;;;;;;7.45;3.42;;;;;;;;;;5035906;28;20024;-81
2023/07/15 15:56:45;;;;;;;7.72;3.95;;;;;;;;;;5026422;28;20112;-80
2023/07/15 15:59:31;;;;;;;9.05;3.70;;;;;;;;;;5023707;28;20457;-74
2023/07/15 16:02:16;;;;;;;7.38;3.35;;;;;;;;;;5006784;28;20037;-74
2023/07/15 16:05:01;;;;;;;6.05;3.65;;;;;;;;;;5005529;28;20065;-77
2023/07/15 16:07:47;;;;;;;11.23;5.35;;;;;;;;;;5024671;28;20053;-71
2023/07/15 16:10:33;;;;;;;7.53;3.72;;;;;;;;;;5025228;28;20507;-72
2023/07/15 16:13:18;;;;;;;4.30;3.03;;;;;;;;;;5025203;28;20026;-77
2023/07/15 16:16:03;;;;;;;11.20;3.75;;;;;;;;;;5005196;28;20056;-76
2023/07/15 16:18:48;;;;;;;4.68;3.28;;;;;;;;;;5025872;28;20082;-71
2023/07/15 16:21:34;;;;;;;8.18;3.38;;;;;;;;;;5030583;28;20554;-71
2023/07/15 16:24:19;;;;;;;6.47;3.15;;;;;;;;;;5038861;28;20041;-72
2023/07/15 16:27:05;;;;;;;5.68;3.20;;;;;;;;;;5044503;28;20056;-72
2023/07/15 16:29:50;;;;;;;8.43;3.10;;;;;;;;;;5040494;28;20064;-72
2023/07/15 16:32:35;;;;;;;5.07;2.78;;;;;;;;;;5036330;28;20107;-74